Time;durP1;ratioP1;P1;durP2;ratioP2;P2;SDS_P1;SDS_P2;PMS_P1;PMS_P2;Temp;Humidity;BMP_temperature;BMP_pressure;BME280_temperature;BME280_humidity;BME280_pressure;Samples;Min_cycle;Max_cycle;Signal;HPM_P1;HPM_P2
2023/11/10 00:01:52;;;;;;;2.97;1.73;;;;;;;3.14;100.00;91922.69;4938796;29;20530;-79
2023/11/10 00:04:19;;;;;;;2.97;1.50;;;;;;;3.11;100.00;91926.56;4950031;29;20031;-80
2023/11/10 00:06:45;;;;;;;2.22;1.30;;;;;;;3.12;100.00;91922.94;4964364;28;20067;-81
2023/11/10 00:09:14;;;;;;;2.45;1.30;;;;;;;3.16;100.00;91917.28;4951648;29;20560;-79
2023/11/10 00:11:44;;;;;;;2.08;1.35;;;;;;;3.17;100.00;91916.25;4937394;29;20582;-80
2023/11/10 00:14:10;;;;;;;2.15;1.30;;;;;;;3.18;100.00;91913.41;4951370;29;20032;-79
2023/11/10 00:16:36;;;;;;;1.70;1.20;;;;;;;3.22;100.00;91916.25;4935488;29;20028;-81
2023/11/10 00:19:03;;;;;;;1.98;1.20;;;;;;;3.21;100.00;91910.31;4954598;29;20147;-79
2023/11/10 00:21:29;;;;;;;1.95;1.30;;;;;;;3.18;100.00;91902.28;4955231;29;20063;-80
2023/11/10 00:23:54;;;;;;;1.45;1.10;;;;;;;3.20;100.00;91902.78;4953828;29;20134;-80
2023/11/10 00:26:24;;;;;;;1.67;1.13;;;;;;;3.27;100.00;91918.88;4955455;28;20345;-81
2023/11/10 00:28:51;;;;;;;1.50;1.00;;;;;;;3.22;100.00;91908.47;4953645;29;20039;-80
2023/11/10 00:31:20;;;;;;;1.23;1.02;;;;;;;3.20;100.00;91903.59;4935848;29;20035;-79
2023/11/10 00:33:53;;;;;;;2.05;1.10;;;;;;;3.22;100.00;91901.53;4938448;29;20577;-80
2023/11/10 00:36:19;;;;;;;1.65;1.10;;;;;;;3.27;100.00;91898.16;4934177;29;20126;-79
2023/11/10 00:38:48;;;;;;;1.90;1.20;;;;;;;3.27;100.00;91893.00;4952058;29;20156;-80
2023/11/10 00:41:15;;;;;;;2.08;1.10;;;;;;;3.32;100.00;91898.19;4938463;29;20042;-80
2023/11/10 00:43:41;;;;;;;1.20;0.93;;;;;;;3.31;100.00;91886.25;4955416;29;20043;-80
2023/11/10 00:46:07;;;;;;;1.30;1.00;;;;;;;3.35;100.00;91882.13;4943381;29;20486;-79
2023/11/10 00:48:35;;;;;;;1.05;0.80;;;;;;;3.34;100.00;91878.78;4958311;28;20024;-79
2023/11/10 00:51:01;;;;;;;1.00;0.90;;;;;;;3.35;100.00;91884.72;4960937;28;20098;-79
2023/11/10 00:53:27;;;;;;;0.60;0.60;;;;;;;3.37;100.00;91881.88;4933970;29;20043;-78
2023/11/10 00:55:53;;;;;;;0.85;0.85;;;;;;;3.33;100.00;91869.47;4944573;29;20058;-79
2023/11/10 00:58:19;;;;;;;1.60;1.10;;;;;;;3.33;100.00;91868.66;4951850;28;20075;-79
2023/11/10 01:00:45;;;;;;;1.02;0.82;;;;;;;3.34;100.00;91871.00;4953422;29;20082;-79
2023/11/10 01:03:12;;;;;;;0.73;0.73;;;;;;;3.34;100.00;91855.50;4950080;29;20277;-80
2023/11/10 01:05:38;;;;;;;0.85;0.80;;;;;;;3.37;100.00;91859.38;4942984;29;20059;-80
2023/11/10 01:08:05;;;;;;;0.60;0.60;;;;;;;3.38;100.00;91840.25;4937849;29;20047;-79
2023/11/10 01:10:34;;;;;;;0.65;0.65;;;;;;;3.38;100.00;91829.91;4946846;29;20035;-79
2023/11/10 01:13:00;;;;;;;0.60;0.60;;;;;;;3.41;100.00;91829.38;4954390;29;20569;-80
2023/11/10 01:15:29;;;;;;;1.23;0.80;;;;;;;3.45;100.00;91822.66;4940901;29;20031;-80
2023/11/10 01:17:54;;;;;;;0.85;0.85;;;;;;;3.41;100.00;91816.44;4953364;28;20051;-79
2023/11/10 01:20:20;;;;;;;4.00;1.00;;;;;;;3.38;100.00;91798.03;4939865;29;20513;-80
2023/11/10 01:22:45;;;;;;;1.27;0.80;;;;;;;3.36;100.00;91784.63;4941071;29;20037;-80
2023/11/10 01:25:14;;;;;;;1.10;1.00;;;;;;;3.36;100.00;91782.03;4937949;29;20479;-80
2023/11/10 01:27:44;;;;;;;17.25;1.13;;;;;;;3.55;100.00;91790.81;4955213;29;20288;-79
2023/11/10 01:30:12;;;;;;;3.47;1.27;;;;;;;3.38;100.00;91785.91;4949907;29;20054;-79
2023/11/10 01:32:38;;;;;;;5.20;1.00;;;;;;;3.31;100.00;91782.78;4942070;29;20189;-80
2023/11/10 01:35:04;;;;;;;0.85;0.80;;;;;;;3.20;100.00;91781.22;4959770;29;20059;-80
2023/11/10 01:37:30;;;;;;;0.93;0.88;;;;;;;3.20;100.00;91786.41;4957434;28;20112;-80
2023/11/10 01:39:56;;;;;;;2.25;0.60;;;;;;;3.16;100.00;91787.97;4947449;29;20043;-80
2023/11/10 01:42:22;;;;;;;0.70;0.70;;;;;;;3.19;100.00;91790.03;4939802;29;20039;-80
2023/11/10 01:44:48;;;;;;;0.80;0.80;;;;;;;3.17;100.00;91779.94;4938805;29;20529;-80
2023/11/10 01:47:14;;;;;;;1.60;0.80;;;;;;;3.22;100.00;91776.56;4949990;29;20086;-80
2023/11/10 01:49:40;;;;;;;0.60;0.60;;;;;;;3.22;100.00;91774.78;4956776;29;20862;-80
2023/11/10 01:52:07;;;;;;;1.75;1.15;;;;;;;3.22;100.00;91763.63;4949271;29;20066;-80
2023/11/10 01:54:35;;;;;;;0.65;0.65;;;;;;;3.23;100.00;91770.38;4937576;29;20530;-79
2023/11/10 01:57:05;;;;;;;6.97;0.90;;;;;;;3.23;100.00;91765.19;4956282;29;20050;-80
2023/11/10 01:59:34;;;;;;;0.60;0.60;;;;;;;3.23;100.00;91762.63;4940894;29;20047;-80
2023/11/10 02:02:00;;;;;;;0.80;0.80;;;;;;;3.25;100.00;91760.56;4949992;29;20042;-81
2023/11/10 02:04:26;;;;;;;0.80;0.80;;;;;;;3.26;100.00;91755.09;4957399;29;20043;-81
2023/11/10 02:06:52;;;;;;;0.75;0.63;;;;;;;3.25;100.00;91760.56;4912426;29;20060;-79
2023/11/10 02:09:19;;;;;;;1.00;0.90;;;;;;;3.30;100.00;91757.97;4931590;29;20036;-80
2023/11/10 02:11:45;;;;;;;0.70;0.70;;;;;;;3.26;100.00;91741.41;4925838;29;20024;-80
2023/11/10 02:14:12;;;;;;;1.00;0.90;;;;;;;3.31;100.00;91741.38;4937956;29;20046;-80
2023/11/10 02:16:38;;;;;;;1.73;0.68;;;;;;;3.28;100.00;91737.50;4937639;29;20086;-81
2023/11/10 02:19:05;;;;;;;0.70;0.70;;;;;;;3.32;100.00;91748.91;4944323;29;20549;-79
2023/11/10 02:21:31;;;;;;;0.60;0.60;;;;;;;3.32;100.00;91738.56;4930129;29;20038;-81
2023/11/10 02:24:01;;;;;;;0.85;0.85;;;;;;;3.34;100.00;91735.72;4932951;29;20507;-80
2023/11/10 02:26:27;;;;;;;1.25;0.98;;;;;;;3.36;100.00;91738.81;4930703;29;20035;-79
2023/11/10 02:28:54;;;;;;;1.77;0.90;;;;;;;3.33;100.00;91728.97;4937238;29;20024;-80
2023/11/10 02:31:19;;;;;;;0.88;0.82;;;;;;;3.30;100.00;91727.69;4929710;29;20415;-80
2023/11/10 02:33:46;;;;;;;2.10;0.77;;;;;;;3.32;100.00;91732.59;4935360;29;20038;-77
2023/11/10 02:36:12;;;;;;;0.70;0.70;;;;;;;3.32;100.00;91737.78;4919773;29;20038;-79
2023/11/10 02:38:39;;;;;;;0.70;0.70;;;;;;;3.30;100.00;91724.31;4919456;29;20085;-79
2023/11/10 02:41:05;;;;;;;1.63;0.73;;;;;;;3.34;100.00;91733.91;4937130;29;20059;-78
2023/11/10 02:43:34;;;;;;;0.93;0.90;;;;;;;3.34;100.00;91722.78;4928908;29;20038;-79
2023/11/10 02:46:01;;;;;;;0.60;0.60;;;;;;;3.38;100.00;91720.44;4936999;29;20039;-78
2023/11/10 02:48:27;;;;;;;0.70;0.70;;;;;;;3.39;100.00;91722.75;4936310;29;20079;-79
2023/11/10 02:50:53;;;;;;;0.90;0.85;;;;;;;3.40;100.00;91713.19;4937490;29;20447;-79
2023/11/10 02:53:19;;;;;;;0.73;0.73;;;;;;;3.42;100.00;91706.72;4932629;29;20464;-79
2023/11/10 02:55:45;;;;;;;0.85;0.77;;;;;;;3.45;100.00;91706.22;4932222;29;20047;-81
2023/11/10 02:58:11;;;;;;;0.60;0.60;;;;;;;3.45;100.00;91711.38;4936287;29;20035;-79
2023/11/10 03:00:37;;;;;;;2.28;0.70;;;;;;;3.46;100.00;91718.09;4928643;29;20051;-81
2023/11/10 03:03:03;;;;;;;0.68;0.60;;;;;;;3.46;100.00;91712.91;4936615;29;20043;-80
2023/11/10 03:05:30;;;;;;;0.60;0.60;;;;;;;3.43;100.00;91715.28;4946433;28;20055;-79
2023/11/10 03:07:56;;;;;;;1.33;0.88;;;;;;;3.46;100.00;91732.84;4934509;29;20035;-80
2023/11/10 03:10:23;;;;;;;1.02;0.93;;;;;;;3.43;100.00;91731.56;4936580;29;20039;-80
2023/11/10 03:12:50;;;;;;;0.63;0.63;;;;;;;3.46;100.00;91722.50;4918423;29;20034;-79
2023/11/10 03:15:17;;;;;;;0.85;0.80;;;;;;;3.45;100.00;91711.38;4918390;29;20102;-79
2023/11/10 03:17:43;;;;;;;0.70;0.70;;;;;;;3.46;100.00;91705.16;4918811;29;20043;-79
2023/11/10 03:20:09;;;;;;;0.68;0.68;;;;;;;3.45;100.00;91703.63;4936857;29;20360;-79
2023/11/10 03:22:35;;;;;;;0.80;0.80;;;;;;;3.46;100.00;91707.75;4934277;29;20070;-79
2023/11/10 03:25:02;;;;;;;0.70;0.70;;;;;;;3.48;100.00;91712.66;4935618;29;20507;-79
2023/11/10 03:27:28;;;;;;;1.33;0.80;;;;;;;3.49;100.00;91711.63;4933975;29;20027;-80
2023/11/10 03:29:54;;;;;;;0.75;0.70;;;;;;;3.50;100.00;91710.59;4935780;29;20043;-80
2023/11/10 03:32:21;;;;;;;0.73;0.70;;;;;;;3.48;100.00;91705.69;4934779;29;20476;-80
2023/11/10 03:34:46;;;;;;;0.70;0.70;;;;;;;3.52;100.00;91704.13;4933974;29;20040;-79
2023/11/10 03:37:13;;;;;;;0.70;0.70;;;;;;;3.53;100.00;91699.72;4957756;28;20038;-80
2023/11/10 03:39:39;;;;;;;1.00;0.90;;;;;;;3.67;100.00;91712.88;4936452;29;20443;-79
2023/11/10 03:42:07;;;;;;;1.20;0.90;;;;;;;3.59;100.00;91705.66;4926173;29;20140;-80
2023/11/10 03:44:36;;;;;;;0.75;0.75;;;;;;;3.57;100.00;91707.75;4935280;29;20538;-79
2023/11/10 03:47:01;;;;;;;1.20;0.70;;;;;;;3.58;100.00;91702.31;4934282;29;20444;-80
2023/11/10 03:49:27;;;;;;;0.68;0.68;;;;;;;3.56;100.00;91701.78;4935818;29;20078;-79
2023/11/10 03:51:53;;;;;;;2.13;1.10;;;;;;;3.60;100.00;91696.84;4936403;29;20318;-80
2023/11/10 03:54:19;;;;;;;1.67;1.10;;;;;;;3.59;100.00;91706.44;4935321;29;20052;-79
2023/11/10 03:56:46;;;;;;;1.42;0.98;;;;;;;3.60;100.00;91702.03;4935781;29;20023;-80
2023/11/10 03:59:12;;;;;;;1.80;1.00;;;;;;;3.55;100.00;91690.66;4936649;29;20420;-80
2023/11/10 04:01:39;;;;;;;0.90;0.80;;;;;;;3.61;100.00;91693.25;4935227;29;20122;-78
2023/11/10 04:04:07;;;;;;;1.40;0.75;;;;;;;3.60;100.00;91692.44;4936287;29;20499;-78
2023/11/10 04:06:34;;;;;;;0.90;0.88;;;;;;;3.60;100.00;91691.69;4949208;29;20410;-79
2023/11/10 04:09:00;;;;;;;0.80;0.77;;;;;;;3.58;100.00;91688.56;4954442;29;20035;-80
2023/11/10 04:11:27;;;;;;;0.80;0.80;;;;;;;3.61;100.00;91693.25;4954710;29;20098;-79
2023/11/10 04:13:53;;;;;;;2.88;0.80;;;;;;;3.59;100.00;91680.56;4946190;29;20039;-80
2023/11/10 04:16:22;;;;;;;1.08;0.85;;;;;;;3.64;100.00;91684.94;4954561;28;20094;-79
2023/11/10 04:18:54;;;;;;;0.80;0.80;;;;;;;3.62;100.00;91677.44;4945811;29;20036;-80
2023/11/10 04:21:24;;;;;;;1.42;0.95;;;;;;;3.60;100.00;91674.34;4946806;29;20046;-80
2023/11/10 04:23:50;;;;;;;1.17;0.95;;;;;;;3.60;100.00;91655.44;4947343;29;20489;-80
2023/11/10 04:26:16;;;;;;;1.15;1.00;;;;;;;3.55;100.00;91654.41;4936582;28;20357;-80
2023/11/10 04:28:47;;;;;;;1.25;0.90;;;;;;;3.54;100.00;91652.88;4947858;29;20519;-80
2023/11/10 04:31:18;;;;;;;0.80;0.80;;;;;;;3.51;100.00;91637.88;4955480;29;20047;-79
2023/11/10 04:33:44;;;;;;;1.02;0.70;;;;;;;3.57;100.00;91640.47;4955059;29;20402;-79
2023/11/10 04:36:12;;;;;;;1.13;1.00;;;;;;;3.60;100.00;91630.34;4938352;28;20114;-79
2023/11/10 04:38:39;;;;;;;0.93;0.90;;;;;;;3.58;100.00;91624.69;4947610;29;20558;-80
2023/11/10 04:41:05;;;;;;;1.23;0.90;;;;;;;3.61;100.00;91634.50;4943235;29;20419;-80
2023/11/10 04:43:30;;;;;;;0.80;0.73;;;;;;;3.70;100.00;91643.25;4943249;29;20298;-80
2023/11/10 04:45:56;;;;;;;1.10;1.00;;;;;;;3.59;100.00;91633.22;4937350;29;20038;-80
2023/11/10 04:48:22;;;;;;;0.80;0.80;;;;;;;3.48;100.00;91633.22;4951898;28;20499;-79
2023/11/10 04:50:48;;;;;;;1.20;1.00;;;;;;;3.43;100.00;91633.25;4934978;29;20031;-81
2023/11/10 04:53:14;;;;;;;1.33;1.10;;;;;;;3.40;100.00;91635.56;4955115;28;20039;-81
2023/11/10 04:55:40;;;;;;;1.00;0.90;;;;;;;3.40;100.00;91630.41;4954345;29;20130;-80
2023/11/10 04:58:06;;;;;;;1.88;1.05;;;;;;;3.39;100.00;91629.63;4954316;28;20032;-79
2023/11/10 05:00:33;;;;;;;1.23;1.00;;;;;;;3.42;100.00;91633.50;4953983;29;20032;-80
2023/11/10 05:03:03;;;;;;;1.75;1.10;;;;;;;3.44;100.00;91626.25;4937246;29;20054;-80
2023/11/10 05:05:29;;;;;;;1.15;1.00;;;;;;;3.43;100.00;91616.94;4948489;29;20183;-81
2023/11/10 05:07:55;;;;;;;4.55;1.20;;;;;;;3.46;100.00;91627.53;4954583;28;20142;-79
2023/11/10 05:10:21;;;;;;;5.05;1.30;;;;;;;3.47;100.00;91616.16;4949399;28;20032;-79
2023/11/10 05:12:47;;;;;;;1.40;1.02;;;;;;;3.49;100.00;91619.25;4952478;29;20423;-79
2023/11/10 05:15:14;;;;;;;1.30;0.98;;;;;;;3.46;100.00;91614.59;4947081;29;20051;-79
2023/11/10 05:17:44;;;;;;;1.27;0.95;;;;;;;3.49;100.00;91608.91;4946839;29;20044;-79
2023/11/10 05:20:13;;;;;;;1.60;1.00;;;;;;;3.49;100.00;91608.13;4946790;29;20047;-79
2023/11/10 05:22:42;;;;;;;0.80;0.80;;;;;;;3.49;100.00;91598.56;4933316;29;20031;-79
2023/11/10 05:25:08;;;;;;;1.00;0.90;;;;;;;3.49;100.00;91587.41;4943404;29;20020;-80
2023/11/10 05:27:34;;;;;;;4.05;2.10;;;;;;;3.50;100.00;91579.41;4948684;29;20039;-81
2023/11/10 05:30:00;;;;;;;2.40;1.40;;;;;;;3.45;100.00;91570.91;4946020;29;20032;-79
2023/11/10 05:32:27;;;;;;;1.10;1.00;;;;;;;3.48;100.00;91572.94;4940506;29;20515;-80
2023/11/10 05:34:54;;;;;;;2.40;1.20;;;;;;;3.53;100.00;91584.06;4944832;29;20032;-80
2023/11/10 05:37:26;;;;;;;4.10;1.30;;;;;;;3.49;100.00;91577.84;4943684;29;20048;-82
2023/11/10 05:39:52;;;;;;;;;;;;;;;3.46;100.00;91569.84;4954255;29;20035;-84
2023/11/10 05:42:30;;;;;;;1.42;1.00;;;;;;;3.43;100.00;91578.91;4949971;29;19921;-81
2023/11/10 05:44:55;;;;;;;0.75;0.75;;;;;;;3.45;100.00;91576.84;4940442;29;20044;-82
2023/11/10 05:47:21;;;;;;;1.02;1.00;;;;;;;3.46;100.00;91582.78;4957242;28;20058;-83
2023/11/10 05:49:47;;;;;;;1.15;1.00;;;;;;;3.41;100.00;91586.16;4937945;29;20042;-82
2023/11/10 05:52:13;;;;;;;1.15;1.00;;;;;;;3.44;100.00;91601.16;4955677;29;20211;-83
2023/11/10 05:54:42;;;;;;;1.27;0.90;;;;;;;3.42;100.00;91598.03;4943677;29;20048;-83
2023/11/10 05:57:07;;;;;;;1.48;1.00;;;;;;;3.43;100.00;91604.00;4937223;29;20447;-82
2023/11/10 05:59:33;;;;;;;1.40;1.02;;;;;;;3.43;100.00;91604.78;4957446;29;20038;-82
2023/11/10 06:02:03;;;;;;;1.42;1.00;;;;;;;3.54;100.00;91601.13;4959021;29;20031;-83
2023/11/10 06:04:29;;;;;;;1.17;0.95;;;;;;;3.49;100.00;91614.09;4957118;28;20035;-83
2023/11/10 06:06:54;;;;;;;5.75;1.10;;;;;;;3.47;100.00;91620.56;4962002;29;20070;-83
2023/11/10 06:09:21;;;;;;;2.63;1.70;;;;;;;3.43;100.00;91620.31;4962736;29;20246;-82
2023/11/10 06:11:48;;;;;;;2.40;1.33;;;;;;;3.45;100.00;91618.22;4962538;29;20434;-83
2023/11/10 06:14:14;;;;;;;2.20;1.30;;;;;;;3.44;100.00;91611.50;4960312;29;20035;-82
2023/11/10 06:16:40;;;;;;;2.83;1.42;;;;;;;3.43;100.00;91615.13;4961569;28;20495;-82
2023/11/10 06:19:07;;;;;;;1.13;1.00;;;;;;;3.44;100.00;91611.50;4942682;29;20042;-81
2023/11/10 06:21:34;;;;;;;1.83;1.20;;;;;;;3.46;100.00;91609.41;4956974;29;20023;-82
2023/11/10 06:23:59;;;;;;;1.33;1.10;;;;;;;3.46;100.00;91604.25;4941027;29;20039;-85
2023/11/10 06:26:25;;;;;;;2.83;1.00;;;;;;;3.47;100.00;91600.63;4925154;29;20398;-82
2023/11/10 06:28:52;;;;;;;1.83;1.10;;;;;;;3.44;100.00;91588.22;4926980;29;20054;-81
2023/11/10 06:31:21;;;;;;;2.20;1.20;;;;;;;3.34;100.00;91586.44;4944287;29;20028;-82
2023/11/10 06:33:51;;;;;;;1.98;1.30;;;;;;;3.26;100.00;91584.38;4946109;29;20036;-82
2023/11/10 06:36:17;;;;;;;2.20;1.30;;;;;;;3.27;100.00;91585.19;4929221;29;20122;-81
2023/11/10 06:38:49;;;;;;;2.10;1.23;;;;;;;3.25;100.00;91592.41;4945894;29;20030;-82
2023/11/10 06:41:14;;;;;;;2.88;1.73;;;;;;;3.21;100.00;91592.16;4963965;29;20118;-83
2023/11/10 06:43:46;;;;;;;2.40;1.50;;;;;;;3.23;100.00;91600.44;4980791;28;20054;-83
2023/11/10 06:46:30;;;;;;;2.55;1.50;;;;;;;3.24;100.00;91602.00;4982003;28;20121;-82
2023/11/10 06:48:57;;;;;;;5.38;1.70;;;;;;;3.29;100.00;91614.16;4964349;28;20111;-81
2023/11/10 06:51:30;;;;;;;2.20;1.30;;;;;;;3.34;100.00;91606.38;4981992;28;20053;-82
2023/11/10 06:53:56;;;;;;;1.80;1.20;;;;;;;3.38;100.00;91597.03;4962269;28;20043;-82
2023/11/10 06:56:25;;;;;;;3.38;1.10;;;;;;;3.44;100.00;91608.91;4944900;29;20119;-82
2023/11/10 06:58:50;;;;;;;1.70;1.10;;;;;;;3.44;100.00;91606.31;4963649;29;20067;-82
2023/11/10 07:01:28;;;;;;;1.92;1.30;;;;;;;3.49;100.00;91608.13;4961552;29;20027;-83
2023/11/10 07:03:54;;;;;;;2.33;1.50;;;;;;;3.50;100.00;91600.09;4961710;29;20137;-82
2023/11/10 07:06:20;;;;;;;1.10;1.00;;;;;;;3.56;100.00;91590.53;4930490;29;20556;-83
2023/11/10 07:09:04;;;;;;;3.35;0.88;;;;;;;3.61;100.00;91579.38;4922599;29;20052;-82
2023/11/10 07:11:30;;;;;;;3.00;1.00;;;;;;;3.67;100.00;91580.88;4924164;29;20044;-82
2023/11/10 07:13:55;;;;;;;1.38;0.90;;;;;;;3.69;100.00;91581.38;4945168;29;20032;-82
2023/11/10 07:16:21;;;;;;;1.27;0.85;;;;;;;3.67;100.00;91578.28;4941735;29;20044;-82
2023/11/10 07:18:52;;;;;;;2.15;1.02;;;;;;;3.68;100.00;91585.81;4941788;29;20043;-82
2023/11/10 07:21:18;;;;;;;10.55;2.08;;;;;;;3.70;100.00;91583.72;4941046;29;20090;-83
2023/11/10 07:23:59;;;;;;;35.03;2.22;;;;;;;3.59;100.00;91581.44;4942549;29;20063;-81
2023/11/10 07:26:25;;;;;;;23.40;1.97;;;;;;;3.60;100.00;91588.16;4942388;29;20447;-82
2023/11/10 07:28:59;;;;;;;11.27;1.80;;;;;;;3.54;100.00;91585.59;4941523;29;20059;-81
2023/11/10 07:31:24;;;;;;;4.32;2.05;;;;;;;3.59;100.00;91576.28;4943617;29;20081;-81
2023/11/10 07:33:50;;;;;;;3.20;1.60;;;;;;;3.61;100.00;91579.38;4939927;29;20031;-80
2023/11/10 07:36:18;;;;;;;4.00;2.10;;;;;;;3.53;100.00;91589.25;4935821;29;20039;-80
2023/11/10 07:38:43;;;;;;;6.00;1.90;;;;;;;3.54;100.00;91595.94;4930996;29;20079;-80
2023/11/10 07:41:09;;;;;;;5.53;1.77;;;;;;;3.54;100.00;91593.38;4936510;29;20040;-81
2023/11/10 07:43:36;;;;;;;3.30;1.75;;;;;;;3.59;100.00;91589.97;4934808;29;20044;-80
2023/11/10 07:46:04;;;;;;;5.90;1.80;;;;;;;3.63;100.00;91598.78;4932239;29;20054;-80
2023/11/10 07:48:31;;;;;;;8.30;2.35;;;;;;;3.68;100.00;91605.75;4923107;29;20059;-80
2023/11/10 07:50:58;;;;;;;15.57;3.33;;;;;;;3.70;100.00;91601.06;4929312;29;20416;-81
2023/11/10 07:53:26;;;;;;;7.25;2.55;;;;;;;3.77;100.00;91608.56;4930897;29;20043;-80
2023/11/10 07:55:52;;;;;;;3.35;1.90;;;;;;;3.83;100.00;91604.88;4929942;29;20059;-81
2023/11/10 07:58:18;;;;;;;3.13;1.67;;;;;;;3.90;100.00;91603.56;4930760;29;20033;-81
2023/11/10 08:00:45;;;;;;;2.92;1.30;;;;;;;3.94;100.00;91598.63;4921604;29;20044;-81
2023/11/10 08:03:11;;;;;;;2.95;1.30;;;;;;;4.02;100.00;91597.31;4943218;29;20031;-81
2023/11/10 08:05:37;;;;;;;2.00;1.15;;;;;;;4.12;100.00;91589.47;4929828;29;20055;-80
2023/11/10 08:08:06;;;;;;;1.33;1.00;;;;;;;4.20;100.00;91582.97;4937036;29;20053;-80
2023/11/10 08:10:33;;;;;;;1.95;1.38;;;;;;;4.28;100.00;91584.97;4939590;29;20043;-80
2023/11/10 08:12:59;;;;;;;1.83;1.08;;;;;;;4.38;100.00;91588.25;4936968;29;20040;-80
2023/11/10 08:15:25;;;;;;;1.35;1.02;;;;;;;4.44;100.00;91588.25;4935005;29;20085;-80
2023/11/10 08:17:51;;;;;;;2.17;1.20;;;;;;;4.49;100.00;91583.78;4936755;29;20060;-80
2023/11/10 08:20:18;;;;;;;1.23;1.00;;;;;;;4.64;100.00;91590.69;4934844;29;20040;-80
2023/11/10 08:22:44;;;;;;;1.25;1.10;;;;;;;4.68;100.00;91596.84;4935041;29;20035;-81
2023/11/10 08:25:11;;;;;;;1.10;0.88;;;;;;;4.65;100.00;91581.84;4935814;29;20071;-81
2023/11/10 08:27:40;;;;;;;3.33;1.10;;;;;;;4.78;100.00;91583.06;4935488;29;20019;-80
2023/11/10 08:30:11;;;;;;;1.02;0.77;;;;;;;4.88;100.00;91584.78;4934938;29;20042;-81
2023/11/10 08:32:37;;;;;;;1.27;1.00;;;;;;;4.99;100.00;91583.66;4934741;29;20036;-81
2023/11/10 08:35:03;;;;;;;1.45;1.10;;;;;;;5.06;100.00;91576.31;4934367;29;20035;-81
2023/11/10 08:37:29;;;;;;;1.80;1.27;;;;;;;5.17;100.00;91574.41;4935994;29;20071;-81
2023/11/10 08:39:55;;;;;;;1.58;0.98;;;;;;;5.26;100.00;91575.34;4933173;29;20462;-81
2023/11/10 08:42:21;;;;;;;1.98;0.93;;;;;;;5.35;100.00;91572.91;4933452;29;20090;-81
2023/11/10 08:44:47;;;;;;;0.98;0.88;;;;;;;5.41;100.00;91571.81;4932711;29;20028;-82
2023/11/10 08:47:13;;;;;;;2.22;1.38;;;;;;;5.60;100.00;91564.06;4933162;29;20047;-81
2023/11/10 08:49:39;;;;;;;30.55;2.47;;;;;;;5.50;100.00;91564.97;4933681;29;20172;-80
2023/11/10 08:52:05;;;;;;;10.05;2.25;;;;;;;5.36;100.00;91561.50;4933830;29;20088;-82
2023/11/10 08:54:33;;;;;;;5.28;2.45;;;;;;;5.31;100.00;91556.34;4934554;29;20136;-82
2023/11/10 08:56:59;;;;;;;68.57;4.15;;;;;;;5.18;100.00;91555.97;4932132;29;20410;-81
2023/11/10 08:59:25;;;;;;;356.27;9.15;;;;;;;5.06;100.00;91547.00;4934971;29;20046;-81
2023/11/10 09:01:52;;;;;;;497.48;11.40;;;;;;;5.09;100.00;91536.88;4932795;29;20111;-82
2023/11/10 09:04:18;;;;;;;85.80;4.78;;;;;;;5.15;100.00;91548.72;4932574;29;20032;-81
2023/11/10 09:06:51;;;;;;;213.63;6.78;;;;;;;5.33;100.00;91543.88;4949193;29;20070;-81
2023/11/10 09:09:17;;;;;;;42.88;4.15;;;;;;;5.43;100.00;91547.13;4955051;29;20031;-81
2023/11/10 09:11:42;;;;;;;35.05;4.88;;;;;;;5.52;100.00;91539.50;4955092;29;20050;-81
2023/11/10 09:14:09;;;;;;;4.82;2.70;;;;;;;5.88;100.00;91548.66;4950115;29;20039;-82
2023/11/10 09:16:35;;;;;;;5.30;2.38;;;;;;;6.31;100.00;91541.63;4943689;29;20046;-84
2023/11/10 09:19:01;;;;;;;4.05;2.15;;;;;;;6.38;100.00;91546.47;4951791;29;20203;-84
2023/11/10 09:21:29;;;;;;;3.67;2.30;;;;;;;6.55;100.00;91538.16;4953686;29;20031;-84
2023/11/10 09:23:55;;;;;;;9.43;2.55;;;;;;;6.72;100.00;91529.84;4936632;29;20455;-84
2023/11/10 09:26:21;;;;;;;4.78;2.15;;;;;;;6.86;100.00;91535.84;4947456;29;20032;-86
2023/11/10 09:28:48;;;;;;;4.25;2.47;;;;;;;6.78;100.00;91537.28;4934845;29;20051;-84
2023/11/10 09:31:14;;;;;;;4.70;2.20;;;;;;;6.78;100.00;91545.06;4938827;29;20034;-84
2023/11/10 09:33:40;;;;;;;4.75;2.85;;;;;;;7.08;100.00;91527.41;4955183;28;20043;-83
2023/11/10 09:36:08;;;;;;;5.32;3.00;;;;;;;7.21;100.00;91538.88;4953277;29;20032;-82
2023/11/10 09:38:35;;;;;;;7.72;2.30;;;;;;;6.63;100.00;91540.88;4941391;28;20031;-84
2023/11/10 09:41:21;;;;;;;6.35;2.97;;;;;;;6.71;100.00;91539.47;4932073;29;20039;-83
2023/11/10 09:43:48;;;;;;;5.30;2.70;;;;;;;7.09;100.00;91541.94;4959014;29;20487;-83
2023/11/10 09:46:24;;;;;;;4.18;2.20;;;;;;;7.17;100.00;91538.69;4958282;28;20113;-84
2023/11/10 09:48:53;;;;;;;4.38;2.50;;;;;;;7.11;100.00;91536.44;4944446;29;20042;-83
2023/11/10 09:51:20;;;;;;;5.55;2.65;;;;;;;7.07;100.00;91537.03;4957245;29;20038;-83
2023/11/10 09:54:05;;;;;;;3.08;1.90;;;;;;;6.90;100.00;91531.59;4945886;29;20040;-83
2023/11/10 09:56:38;;;;;;;3.80;2.10;;;;;;;6.94;100.00;91531.81;4957414;28;20442;-83
2023/11/10 09:59:31;;;;;;;4.53;2.38;;;;;;;7.09;100.00;91534.13;4957066;29;20039;-83
2023/11/10 10:02:00;;;;;;;3.90;2.10;;;;;;;7.06;100.00;91529.50;4957576;29;20430;-83
2023/11/10 10:04:29;;;;;;;4.65;2.30;;;;;;;7.39;100.00;91524.25;4949690;29;20486;-83
2023/11/10 10:06:58;;;;;;;5.30;2.22;;;;;;;7.44;100.00;91519.69;4937647;29;20055;-83
2023/11/10 10:09:26;;;;;;;2.75;1.60;;;;;;;8.12;100.00;91523.25;4923934;29;20474;-83
2023/11/10 10:11:57;;;;;;;3.08;1.70;;;;;;;8.48;100.00;91519.91;4957581;29;20495;-83
2023/11/10 10:14:39;;;;;;;2.13;1.40;;;;;;;8.99;100.00;91506.72;4940570;29;20039;-81
2023/11/10 10:17:06;;;;;;;;;;;;;;;9.51;100.00;91501.69;4940351;29;20070;-82
2023/11/10 10:20:18;;;;;;;3.55;1.80;;;;;;;9.47;100.00;91495.53;4948337;29;19957;-83
2023/11/10 10:22:44;;;;;;;3.25;1.98;;;;;;;9.63;100.00;91498.50;4944237;28;20055;-84
2023/11/10 10:25:12;;;;;;;4.65;2.15;;;;;;;9.50;100.00;91489.69;4918843;29;20032;-82
2023/11/10 10:27:38;;;;;;;4.60;2.60;;;;;;;9.57;100.00;91487.44;4951252;28;20334;-83
2023/11/10 10:30:10;;;;;;;3.33;1.80;;;;;;;9.37;100.00;91476.47;4934976;29;20031;-84
2023/11/10 10:32:37;;;;;;;4.03;2.15;;;;;;;9.50;100.00;91476.63;4950975;29;20521;-83
2023/11/10 10:35:03;;;;;;;5.70;2.50;;;;;;;9.07;100.00;91479.88;4954749;29;20063;-84
2023/11/10 10:37:31;;;;;;;5.68;2.78;;;;;;;8.73;100.00;91474.16;4952730;29;20043;-84
2023/11/10 10:40:09;;;;;;;5.20;2.80;;;;;;;8.65;100.00;91471.53;4938336;29;20051;-83
2023/11/10 10:42:36;;;;;;;5.75;2.40;;;;;;;8.72;100.00;91464.03;4949978;29;20047;-83
2023/11/10 10:45:06;;;;;;;3.13;1.80;;;;;;;9.37;100.00;91452.19;4955476;29;20035;-83
2023/11/10 10:47:39;;;;;;;3.97;2.13;;;;;;;10.01;100.00;91443.81;4955442;29;20110;-83
2023/11/10 10:50:10;;;;;;;3.60;1.98;;;;;;;9.50;100.00;91448.69;4953669;29;20268;-83
2023/11/10 10:52:36;;;;;;;5.13;2.75;;;;;;;9.91;100.00;91439.66;4950567;29;20043;-83
2023/11/10 10:55:07;;;;;;;3.55;2.03;;;;;;;9.82;100.00;91432.88;4945376;29;20035;-84
2023/11/10 10:57:34;;;;;;;4.65;2.10;;;;;;;9.94;100.00;91425.97;4939413;29;20032;-83
2023/11/10 11:00:09;;;;;;;3.75;2.08;;;;;;;10.42;100.00;91426.91;4951732;29;20039;-83
2023/11/10 11:02:41;;;;;;;4.30;2.00;;;;;;;10.28;100.00;91424.44;4953390;29;20043;-83
2023/11/10 11:05:12;;;;;;;3.85;2.13;;;;;;;9.69;100.00;91411.81;4946311;29;20035;-83
2023/11/10 11:08:02;;;;;;;4.45;2.13;;;;;;;9.23;100.00;91413.13;4933367;29;20028;-82
2023/11/10 11:11:04;;;;;;;3.85;1.90;;;;;;;9.09;100.00;91407.22;4931850;29;20039;-84
2023/11/10 11:13:52;;;;;;;3.88;2.05;;;;;;;8.67;100.00;91407.53;4953630;29;20370;-82
2023/11/10 11:16:37;;;;;;;3.65;1.80;;;;;;;8.42;100.00;91400.34;4953745;28;20515;-84
2023/11/10 11:19:30;;;;;;;5.13;1.98;;;;;;;8.44;100.00;91393.75;4955219;29;20077;-83
2023/11/10 11:21:57;;;;;;;4.13;2.17;;;;;;;8.40;100.00;91386.81;4940338;29;20043;-82
2023/11/10 11:24:23;;;;;;;6.22;2.20;;;;;;;8.26;100.00;91381.66;4936888;29;20046;-81
2023/11/10 11:27:02;;;;;;;6.50;2.28;;;;;;;8.00;100.00;91387.50;4932592;29;20043;-82
2023/11/10 11:29:38;;;;;;;4.30;2.22;;;;;;;7.76;100.00;91389.63;4940261;29;20039;-81
2023/11/10 11:32:08;;;;;;;3.85;2.08;;;;;;;7.65;100.00;91387.22;4953474;29;20035;-81
2023/11/10 11:34:36;;;;;;;5.32;2.65;;;;;;;7.34;100.00;91375.94;4951485;29;20035;-82
2023/11/10 11:37:06;;;;;;;3.08;1.90;;;;;;;7.47;100.00;91367.31;4943354;29;20484;-80
2023/11/10 11:39:32;;;;;;;3.97;1.90;;;;;;;7.38;100.00;91369.06;4948874;29;20511;-81